Here is the Quick Look data you requested

The Data originates at the National Weather Service, and is made available here by the UAlbany Department of Atmospheric and Environmental Sciences

Surface Observations

KCVG 091652Z 17004KT 7SM -TSRA FEW038CB SCT075 BKN110 27/21 A2996 RMK AO2 LTG
 DSNT E AND SE SLP132 CB S MOV S OCNL LTGIC DSNT S TS DSPTD P0047 T02720211 $=
KCVG 091652Z COR 17004KT 7SM -RA FEW038CB SCT075 BKN110 27/21 A2996 RMK AO2 LTG
 DSNT E AND SE SLP132 CB S MOV S OCNL LTGIC DSNT S TS DSPTD P0047 T02720211 $=
KCVG 091702Z 15006KT 10SM -RA FEW036CB BKN080 26/21 A2996 RMK AO2 LTG DSNT E
 AND SE CB S MOV S P0000 T02560206 $=
KCVG 091752Z 00000KT 10SM SCT045TCU SCT240 32/19 A2994 RMK AO2 LTG DSNT E AND S
 SLP125 TCU NW N CB DSPTD CB DSNT E S P0000 60056 T03170194 10317 20244 58005=
KCVG 091805Z 00000KT 10SM TS FEW046CB SCT240 32/20 A2993 RMK AO2 LTG DSNT E-S
 TSB04 OCNL LTGICCC SE TS SE STNRY TCU W T03220200=
KCVG 091840Z 15011KT 10SM FEW042 SCT240 29/22 A2991 RMK AO2 LTG DSNT NE-S
 TSB04E40 PRESFR TS MOV S CB DSNT SE-SW T02890217=
KCVG 091852Z 15008KT 10SM FEW040 SCT240 31/22 A2991 RMK AO2 LTG DSNT NE-S
 TSB04E40 SLP114 TS MOV S CB DSNT SE-SW TCU DSNT NE T03060217=
KCVG 091952Z 17013G24KT 10SM FEW040 FEW110 SCT210 BKN250 27/21 A2993 RMK AO2
 LTG DSNT ALQDS SLP123 CB DSNT NE AND SW TCU DSNT W-NW T02670206=
KCVG 092052Z 20005KT 10SM FEW040 FEW120 SCT200 BKN250 29/19 A2990 RMK AO2 LTG
 DSNT W-N SLP114 CB DSNT W-NW T02890189 56012=
KCVG 092152Z 24005KT 10SM FEW130 SCT170 BKN240 27/21 A2988 RMK AO2 LTG DSNT NW
 SLP108 T02720206=
KCVG 092252Z 26003KT 10SM SCT190 BKN250 28/21 A2988 RMK AO2 SLP107 T02780206=
KCVG 092352Z 30003KT 10SM SCT200 SCT250 29/21 A2990 RMK AO2 SLP113 T02890206
 10322 20267 55002=
KCVG 100052Z 00000KT 10SM SCT160 27/21 A2989 RMK AO2 SLP111 T02670211=
KCVG 100152Z 16005KT 10SM SCT160 SCT250 25/21 A2989 RMK AO2 SLP107 T02500211=
KCVG 100252Z 25004KT 10SM FEW150 SCT250 25/21 A2990 RMK AO2 SLP112 T02500206
 55000=
KCVG 100352Z 00000KT 10SM FEW150 FEW250 25/21 A2989 RMK AO2 SLP111 T02500211=
KCVG 100452Z 00000KT 9SM FEW150 FEW250 24/21 A2990 RMK AO2 SLP112 T02390211
 403220217=
KCVG 100552Z 20003KT 10SM CLR 23/21 A2989 RMK AO2 SLP110 T02330206 10289 20228
 56001=
KCVG 100652Z 19003KT 8SM CLR 23/21 A2989 RMK AO2 SLP109 T02280206=
KCVG 100752Z 18006KT 8SM CLR 23/21 A2988 RMK AO2 SLP109 T02280211=
KCVG 100852Z 19005KT 7SM CLR 23/21 A2987 RMK AO2 SLP103 T02280211 58008=
KCVG 100952Z 19006KT 9SM FEW040 23/21 A2987 RMK AO2 SLP102 T02330211=
KCVG 101052Z 20006KT 9SM FEW070 SCT150 24/22 A2987 RMK AO2 SLP104 T02390217=
KCVG 101152Z 21007KT 10SM FEW040 SCT130 BKN150 26/22 A2988 RMK AO2 LTG DSNT W
 SLP105 70056 T02560222 10256 20217 53002=
KCVG 101219Z 21005KT 9SM VCTS FEW040 SCT130 BKN150 26/22 A2988 RMK AO2 LTG DSNT
 W T02610222=
KCVG 101230Z 25009KT 10SM TS FEW020CB FEW040 SCT130 BKN150 27/22 A2988 RMK AO2
 LTG DSNT N AND S AND NW TSB24 OCNL LTG W MOV E TS W MOV E T02670222=
KCVG 101252Z 26004KT 2 1/2SM R18C/5000VP6000FT VCTS -RA SCT020 OVC032CB 24/21
 A2988 RMK AO2 VIS 1 3/4 36R LTG DSNT N AND S RAB38 TSB24E51 SLP107 OCNL LTG
 OHD MOV E TS OHD MOV E P0003
KCVG 101308Z 16003KT 10SM BKN035 BKN060 BKN085 24/22 A2989 RMK AO2 LTG DSNT N
 AND S RAE1259 TSB1253E1254B1256E1258 CIG 030 36R P0001 T02390217=
KCVG 101252Z COR 26004KT 2 1/2SM R18C/5000VP6000FT VCTS -RA SCT020 OVC032CB
 24/21 A2988 RMK AO2 VIS 1 3/4 36R LTG DSNT N AND S RAB38 TSB24E51 MOV E SLP107
 P0003 T02390211=
KCVG 101352Z 19011KT 9SM FEW045 FEW070 27/23 A2987 RMK AO2 LTG DSNT E AND SE
 SLP104 P0001 T02670228=
KCVG 101452Z 19007KT 8SM FEW035 FEW110 28/23 A2986 RMK AO2 SLP099 60004
 T02830233 58005=
KCVG 101552Z 26009KT 10SM VCTS SCT023 BKN031 BKN040 29/23 A2984 RMK AO2 LTG
 DSNT SE-SW SLP091 T02940233=
KCVG 101614Z 21012KT 10SM SCT023 BKN031 OVC040 30/22 A2984 RMK AO2 LTG DSNT S
 T03000222=
KCVG 101652Z 26012G17KT 10SM FEW027 SCT039 BKN060 31/23 A2982 RMK AO2 LTG DSNT
 E-S SLP086 T03060228=